Time;durP1;ratioP1;P1;durP2;ratioP2;P2;SDS_P1;SDS_P2;PMS_P1;PMS_P2;Temp;Humidity;BMP_temperature;BMP_pressure;BME280_temperature;BME280_humidity;BME280_pressure;Samples;Min_cycle;Max_cycle;Signal;HPM_P1;HPM_P2
2022/08/07 00:01:45;;;;;;;5.10;2.87;;;;;;;20.27;57.73;97094.59;10321672;28;20053;-27
2022/08/07 00:06:45;;;;;;;2.60;2.40;;;;;;;20.25;57.70;97101.41;10321798;28;20038;-26
2022/08/07 00:11:46;;;;;;;3.13;2.50;;;;;;;20.14;57.54;97092.91;10328120;28;20301;-26
2022/08/07 00:16:46;;;;;;;4.57;2.83;;;;;;;20.11;57.92;97103.09;10323245;28;20117;-26
2022/08/07 00:21:47;;;;;;;4.07;2.45;;;;;;;20.17;57.51;97100.56;10324715;28;20030;-27
2022/08/07 00:26:47;;;;;;;2.65;2.30;;;;;;;20.13;57.56;97083.59;10326389;28;20038;-26
2022/08/07 00:31:47;;;;;;;3.27;2.33;;;;;;;20.16;57.67;97086.13;10324140;28;20030;-27
2022/08/07 00:36:48;;;;;;;4.73;2.60;;;;;;;20.21;57.33;97084.44;10324640;28;20042;-26
2022/08/07 00:41:51;;;;;;;3.28;2.97;;;;;;;20.11;57.60;97092.91;10325791;28;20042;-27
2022/08/07 00:46:52;;;;;;;2.90;2.70;;;;;;;20.12;57.71;97079.34;10323431;28;20048;-26
2022/08/07 00:51:53;;;;;;;3.47;2.70;;;;;;;20.00;57.50;97056.47;10317884;28;20057;-26
2022/08/07 00:56:53;;;;;;;4.18;2.63;;;;;;;19.92;57.92;97071.69;10326689;28;20400;-27
2022/08/07 01:01:53;;;;;;;4.70;3.20;;;;;;;19.98;57.70;97068.31;10323719;28;20428;-27
2022/08/07 01:06:55;;;;;;;3.63;2.60;;;;;;;19.81;57.53;97036.97;10317027;28;20488;-27
2022/08/07 01:11:55;;;;;;;3.30;2.95;;;;;;;19.89;57.66;97064.09;10323757;28;20034;-27
2022/08/07 01:16:56;;;;;;;2.97;2.75;;;;;;;19.83;57.90;97056.47;10320126;28;20030;-27
2022/08/07 01:21:58;;;;;;;2.72;2.53;;;;;;;19.87;57.89;97053.09;10322363;28;20101;-27
2022/08/07 01:27:01;;;;;;;3.30;2.60;;;;;;;19.75;58.10;97037.00;10323477;28;20033;-28
2022/08/07 01:32:04;;;;;;;3.38;2.65;;;;;;;19.81;58.04;97045.44;10323066;28;20130;-26
2022/08/07 01:37:04;;;;;;;3.53;3.22;;;;;;;19.76;58.32;97048.84;10322148;28;20109;-27
2022/08/07 01:42:05;;;;;;;4.30;3.10;;;;;;;19.65;58.42;97041.22;10339651;28;20112;-27
2022/08/07 01:47:08;;;;;;;2.90;2.70;;;;;;;19.72;58.33;97042.06;10320868;28;20043;-27
2022/08/07 01:52:09;;;;;;;4.13;2.83;;;;;;;19.68;58.55;97040.38;10314846;28;20033;-27
2022/08/07 01:57:18;;;;;;;3.85;3.03;;;;;;;19.66;58.56;97037.81;10322949;28;20483;-27
2022/08/07 02:02:27;;;;;;;2.50;2.30;;;;;;;19.70;58.60;97038.69;10319734;28;20463;-26
2022/08/07 02:07:33;;;;;;;3.05;2.67;;;;;;;19.53;58.67;97014.97;10317561;28;20041;-27
2022/08/07 02:12:38;;;;;;;4.90;2.77;;;;;;;19.73;58.49;97033.59;10321974;28;20037;-27
2022/08/07 02:17:43;;;;;;;2.95;2.70;;;;;;;19.67;58.35;97025.97;10321608;28;20041;-27
2022/08/07 02:22:45;;;;;;;3.67;3.38;;;;;;;19.73;58.68;97038.66;10324000;28;20130;-27
2022/08/07 02:27:48;;;;;;;3.45;2.97;;;;;;;19.67;58.82;97031.91;10330467;28;20038;-27
2022/08/07 02:32:51;;;;;;;2.83;2.58;;;;;;;19.65;58.76;97031.06;10331099;28;20413;-27
2022/08/07 02:37:52;;;;;;;3.60;2.92;;;;;;;19.67;58.59;97029.34;10329174;28;20409;-26
2022/08/07 02:42:56;;;;;;;4.25;2.90;;;;;;;19.64;58.73;97029.34;10329963;28;20038;-26
2022/08/07 02:47:58;;;;;;;3.58;2.90;;;;;;;19.63;58.52;97030.22;10326551;28;20022;-27
2022/08/07 02:53:05;;;;;;;3.50;3.13;;;;;;;19.61;58.69;97026.81;10321981;28;20034;-27
2022/08/07 02:58:12;;;;;;;3.05;2.85;;;;;;;19.45;58.89;97027.66;10329765;28;20054;-27
2022/08/07 03:03:16;;;;;;;2.90;2.60;;;;;;;19.47;59.07;97030.19;10327610;28;20105;-26
2022/08/07 03:08:20;;;;;;;3.50;2.92;;;;;;;19.50;58.87;97020.03;10322753;28;20465;-27
2022/08/07 03:13:25;;;;;;;2.97;2.67;;;;;;;19.50;59.09;97013.25;10328319;28;20117;-26
2022/08/07 03:18:28;;;;;;;6.90;3.08;;;;;;;19.59;58.60;97009.91;10326294;28;20488;-26
2022/08/07 03:23:30;;;;;;;3.58;3.28;;;;;;;19.53;58.79;97004.81;10325733;28;20040;-26
2022/08/07 03:28:34;;;;;;;3.58;3.20;;;;;;;19.53;59.00;97012.41;10327852;28;20556;-27
2022/08/07 03:33:36;;;;;;;4.82;3.10;;;;;;;19.43;59.05;97010.72;10327392;28;20511;-28
2022/08/07 03:38:38;;;;;;;3.22;3.03;;;;;;;19.47;58.91;97015.81;10326707;28;20084;-27
2022/08/07 03:43:41;;;;;;;3.25;2.95;;;;;;;19.46;59.04;97013.25;10324001;28;20031;-26
2022/08/07 03:48:42;;;;;;;3.92;3.15;;;;;;;19.40;58.94;97019.19;10326910;28;20512;-26
2022/08/07 03:53:43;;;;;;;3.55;3.25;;;;;;;19.41;58.76;97020.03;10321130;28;20037;-27
2022/08/07 03:58:45;;;;;;;3.47;3.17;;;;;;;19.30;58.88;96991.22;10327028;28;20040;-26
2022/08/07 04:03:46;;;;;;;3.05;2.85;;;;;;;19.34;58.64;96998.03;10326329;28;20477;-27
2022/08/07 04:08:47;;;;;;;3.80;3.20;;;;;;;19.42;58.17;97011.56;10321399;28;20030;-26
2022/08/07 04:13:48;;;;;;;3.40;2.95;;;;;;;19.33;58.42;97016.66;10326180;28;20033;-27
2022/08/07 04:18:49;;;;;;;5.72;3.05;;;;;;;19.33;58.76;97011.56;10325750;28;20030;-27
2022/08/07 04:23:50;;;;;;;3.50;3.20;;;;;;;19.28;59.28;97008.16;10323985;28;20038;-27
2022/08/07 04:28:51;;;;;;;3.25;3.05;;;;;;;19.31;59.03;97015.78;10325959;28;20428;-26
2022/08/07 04:33:52;;;;;;;4.50;3.22;;;;;;;19.29;59.06;97012.38;10319671;28;20023;-27
2022/08/07 04:38:52;;;;;;;3.90;2.92;;;;;;;19.26;59.37;97025.09;10324094;28;20030;-27
2022/08/07 04:43:55;;;;;;;3.88;3.47;;;;;;;19.27;59.14;97022.53;10323883;28;20185;-27
2022/08/07 04:49:09;;;;;;;4.78;3.00;;;;;;;19.30;59.35;97026.78;10324085;28;20117;-27
2022/08/07 04:54:39;;;;;;;5.25;3.13;;;;;;;19.32;59.24;97030.16;10321265;28;20034;-27
2022/08/07 05:00:04;;;;;;;3.85;3.42;;;;;;;19.33;59.21;97037.78;10306349;28;20137;-27
2022/08/07 05:05:23;;;;;;;3.92;3.53;;;;;;;19.31;59.54;97028.47;10323727;28;20084;-27
2022/08/07 05:10:32;;;;;;;3.50;3.20;;;;;;;19.34;59.65;97041.19;10323266;28;20034;-27
2022/08/07 05:15:40;;;;;;;3.28;2.97;;;;;;;19.36;59.56;97052.19;10321682;28;20038;-27
2022/08/07 05:20:46;;;;;;;4.60;3.58;;;;;;;19.36;59.63;97045.44;10320466;28;20041;-26
2022/08/07 05:25:49;;;;;;;3.88;3.33;;;;;;;19.42;59.49;97052.19;10322420;28;20409;-26
2022/08/07 05:30:52;;;;;;;4.05;2.97;;;;;;;19.43;59.72;97054.72;10322146;28;20034;-26
2022/08/07 05:35:54;;;;;;;4.97;3.22;;;;;;;19.37;60.05;97043.72;10322322;28;20027;-26
2022/08/07 05:40:56;;;;;;;3.95;3.65;;;;;;;19.48;59.84;97054.72;10323472;28;20057;-26
2022/08/07 05:45:57;;;;;;;6.13;3.60;;;;;;;19.52;60.32;97067.44;10321084;28;20466;-26
2022/08/07 05:51:00;;;;;;;4.50;3.65;;;;;;;19.60;60.09;97067.47;10312774;28;20041;-26
2022/08/07 05:56:02;;;;;;;4.32;3.92;;;;;;;19.63;59.91;97068.31;10325783;28;20028;-26
2022/08/07 06:01:10;;;;;;;4.72;4.15;;;;;;;19.68;60.18;97070.84;10329947;28;20046;-26
2022/08/07 06:06:13;;;;;;;4.95;4.18;;;;;;;19.84;59.13;97054.78;10321067;28;20493;-26
2022/08/07 06:11:15;;;;;;;4.13;3.78;;;;;;;19.86;60.39;97068.31;10331610;28;20050;-26
2022/08/07 06:16:18;;;;;;;5.47;4.93;;;;;;;19.96;59.69;97077.63;10325368;28;20058;-27
2022/08/07 06:21:19;;;;;;;5.93;3.85;;;;;;;20.04;59.78;97068.31;10329722;28;20069;-26
2022/08/07 06:26:20;;;;;;;6.30;4.10;;;;;;;20.14;59.73;97072.56;10329457;28;20046;-26
2022/08/07 06:31:22;;;;;;;5.45;4.25;;;;;;;20.18;59.80;97064.09;10328488;28;20100;-26
2022/08/07 06:36:25;;;;;;;4.65;3.35;;;;;;;21.10;56.63;97058.75;10330218;28;20155;-26
2022/08/07 06:41:38;;;;;;;5.55;3.53;;;;;;;20.88;56.65;97052.06;10330435;28;20041;-26
2022/08/07 06:46:40;;;;;;;6.97;3.50;;;;;;;21.05;56.31;97040.09;10325626;28;20690;-26
2022/08/07 06:51:43;;;;;;;5.32;3.35;;;;;;;21.34;55.70;97048.44;10335592;28;20030;-26
2022/08/07 06:56:49;;;;;;;4.45;3.10;;;;;;;20.70;57.83;97041.91;10327424;28;20396;-26
2022/08/07 07:01:58;;;;;;;4.13;3.10;;;;;;;20.92;56.97;97046.13;10325162;28;20404;-26
2022/08/07 07:07:00;;;;;;;3.50;3.20;;;;;;;21.00;56.66;97035.88;10322919;28;20036;-26
2022/08/07 07:12:10;;;;;;;4.03;2.80;;;;;;;21.41;56.04;97037.31;10328789;28;20109;-26
2022/08/07 07:17:16;;;;;;;6.22;2.75;;;;;;;21.32;56.36;97034.00;10322871;28;20041;-26
2022/08/07 07:22:18;;;;;;;3.15;2.88;;;;;;;21.29;56.56;97032.31;10326509;28;20035;-27
2022/08/07 07:27:22;;;;;;;5.13;3.90;;;;;;;21.26;56.77;97029.81;10329352;28;20365;-26
2022/08/07 07:32:23;;;;;;;5.38;3.63;;;;;;;21.54;57.00;97026.22;10325752;28;20066;-26
2022/08/07 07:37:26;;;;;;;3.45;2.80;;;;;;;21.58;56.51;97021.94;10328382;28;20069;-27
2022/08/07 07:42:27;;;;;;;3.80;3.15;;;;;;;21.46;56.53;97015.22;10330285;28;20121;-26
2022/08/07 07:47:28;;;;;;;2.55;2.35;;;;;;;21.56;56.28;97004.09;10326798;28;20049;-27
2022/08/07 07:52:29;;;;;;;2.55;2.35;;;;;;;21.37;56.71;97002.56;10321459;28;20034;-26
2022/08/07 07:57:32;;;;;;;2.72;2.42;;;;;;;21.33;56.48;97003.44;10328664;28;20034;-27
2022/08/07 08:02:36;;;;;;;3.38;2.35;;;;;;;21.33;56.21;97007.69;10326564;28;20042;-26
2022/08/07 08:07:38;;;;;;;2.25;2.05;;;;;;;21.33;56.46;97005.13;10317302;28;20050;-26
2022/08/07 08:12:39;;;;;;;3.35;2.47;;;;;;;21.34;56.33;97007.69;10324490;28;20100;-26
2022/08/07 08:17:42;;;;;;;2.95;2.60;;;;;;;21.29;56.36;96998.38;10318801;28;20112;-27
2022/08/07 08:28:10;;;;;;;6.47;2.80;;;;;;;21.63;55.46;97003.22;10293828;28;20417;-27
2022/08/07 08:33:15;;;;;;;6.30;3.00;;;;;;;21.59;55.24;97009.19;10303731;28;20073;-26
2022/08/07 08:38:20;;;;;;;4.15;2.20;;;;;;;21.44;55.78;96986.38;10321372;28;20120;-27
2022/08/07 08:43:32;;;;;;;2.55;2.35;;;;;;;21.44;55.92;97008.44;10319269;28;20177;-26
2022/08/07 08:48:43;;;;;;;5.95;2.47;;;;;;;21.39;55.92;97003.38;10325607;28;20037;-26
2022/08/07 08:53:51;;;;;;;6.70;2.08;;;;;;;21.40;55.89;97002.53;10310073;28;20030;-26
2022/08/07 08:59:14;;;;;;;3.70;2.33;;;;;;;21.39;56.44;96995.75;10324299;28;20527;-26
2022/08/07 09:04:39;;;;;;;5.85;2.47;;;;;;;21.38;56.23;97001.69;10313284;28;20034;-26
2022/08/07 09:10:06;;;;;;;3.88;2.30;;;;;;;21.51;55.87;96995.66;10319416;28;20120;-25
2022/08/07 09:15:25;;;;;;;;;;;;;;;21.72;54.29;96985.31;10323987;28;20476;-27
2022/08/07 09:20:40;;;;;;;11.35;2.88;;;;;;;21.67;55.02;97002.38;10318636;28;20348;-26
2022/08/07 09:25:55;;;;;;;7.78;2.85;;;;;;;21.59;55.37;96998.16;10323728;28;20062;-26
2022/08/07 09:31:26;;;;;;;6.00;2.10;;;;;;;21.56;55.48;96988.81;10321902;28;20030;-25
2022/08/07 09:36:33;;;;;;;5.90;2.28;;;;;;;21.55;55.34;96992.22;10324813;28;20061;-26
2022/08/07 09:41:43;;;;;;;2.92;2.05;;;;;;;21.54;55.69;96982.91;10327362;28;20042;-26
2022/08/07 09:47:11;;;;;;;3.50;2.50;;;;;;;21.54;55.75;96985.44;10317778;28;20031;-25
2022/08/07 09:52:35;;;;;;;2.25;1.88;;;;;;;21.55;55.61;96981.22;10316934;28;20077;-26
2022/08/07 09:58:09;;;;;;;2.88;1.90;;;;;;;21.75;55.15;96975.13;10320601;28;20270;-25
2022/08/07 10:03:29;;;;;;;2.15;1.80;;;;;;;21.77;55.24;96973.41;10323531;28;20707;-25
2022/08/07 10:08:46;;;;;;;2.40;2.17;;;;;;;21.63;55.55;96975.19;10320754;28;20042;-26
2022/08/07 10:14:12;;;;;;;2.55;2.28;;;;;;;21.58;55.92;96960.78;10318993;28;20045;-26
2022/08/07 10:19:36;;;;;;;4.05;2.38;;;;;;;21.55;55.87;96956.56;10323231;28;20385;-26
2022/08/07 10:24:47;;;;;;;4.38;2.22;;;;;;;21.56;56.05;96948.06;10312977;28;20042;-26
2022/08/07 10:29:50;;;;;;;1.95;1.80;;;;;;;21.53;56.14;96953.19;10323338;28;20050;-26
2022/08/07 10:35:11;;;;;;;2.45;1.85;;;;;;;21.41;56.08;96925.25;10317525;28;20066;-25
2022/08/07 10:40:26;;;;;;;3.28;1.88;;;;;;;21.68;55.75;96948.00;10323075;28;20121;-26
2022/08/07 10:45:38;;;;;;;3.75;2.35;;;;;;;21.83;55.40;96942.75;10326491;28;20066;-27
2022/08/07 10:50:46;;;;;;;1.92;1.60;;;;;;;21.73;55.58;96941.13;10323887;28;20141;-26
2022/08/07 10:55:52;;;;;;;2.08;1.88;;;;;;;21.65;55.72;96927.63;10324623;28;20034;-26
2022/08/07 11:01:23;;;;;;;2.38;2.17;;;;;;;21.64;56.09;96932.72;10330228;28;20034;-26
2022/08/07 11:06:43;;;;;;;3.17;1.90;;;;;;;21.63;56.11;96931.03;10320910;28;20126;-26
2022/08/07 11:11:52;;;;;;;2.60;2.10;;;;;;;21.60;56.03;96929.34;10323130;28;20038;-26
2022/08/07 11:16:59;;;;;;;3.05;2.05;;;;;;;21.57;56.35;96929.34;10326281;28;20061;-26
2022/08/07 11:22:25;;;;;;;3.58;1.90;;;;;;;21.57;56.30;96921.72;10327702;28;20084;-26
2022/08/07 11:27:37;;;;;;;2.42;2.13;;;;;;;21.76;56.01;96919.88;10329363;28;20803;-26
2022/08/07 11:32:42;;;;;;;2.40;2.10;;;;;;;21.87;55.66;96918.91;10318188;28;20563;-26
2022/08/07 11:37:45;;;;;;;2.22;2.00;;;;;;;21.75;55.70;96919.06;10328402;28;20065;-26
2022/08/07 11:43:12;;;;;;;2.05;1.88;;;;;;;21.68;56.09;96904.66;10329296;28;20113;-26
2022/08/07 11:48:29;;;;;;;2.40;2.20;;;;;;;21.63;56.14;96903.00;10328031;28;20072;-26
2022/08/07 11:53:38;;;;;;;;;;;;;;;21.61;56.29;96894.50;10320689;28;20152;-27
2022/08/07 11:59:16;;;;;;;3.97;2.20;;;;;;;21.59;56.44;96903.88;10319766;28;19921;-26
2022/08/07 12:04:44;;;;;;;4.53;2.00;;;;;;;21.57;56.44;96893.69;10325474;28;20046;-27
2022/08/07 12:09:50;;;;;;;2.45;1.88;;;;;;;21.61;56.46;96897.06;10323453;28;20038;-26
2022/08/07 12:15:08;;;;;;;3.53;2.10;;;;;;;21.81;56.19;96890.94;10323633;28;20069;-26
2022/08/07 12:20:33;;;;;;;2.10;1.90;;;;;;;21.93;55.84;96888.28;10327768;28;20328;-26
2022/08/07 12:25:53;;;;;;;1.88;1.73;;;;;;;21.80;56.02;96880.78;10322377;28;20065;-27
2022/08/07 12:31:00;;;;;;;2.45;2.25;;;;;;;21.74;56.19;96871.47;10321370;28;20045;-26
2022/08/07 12:36:03;;;;;;;1.83;1.73;;;;;;;21.64;56.36;96864.75;10322708;28;20037;-27
2022/08/07 12:41:06;;;;;;;1.90;1.80;;;;;;;21.67;56.32;96872.41;10325546;28;20034;-26
2022/08/07 12:46:12;;;;;;;2.35;1.75;;;;;;;21.66;56.50;96882.59;10319290;28;20042;-26
2022/08/07 12:51:17;;;;;;;2.45;2.05;;;;;;;21.65;56.39;96875.81;10313909;28;20043;-26
2022/08/07 12:56:35;;;;;;;1.88;1.70;;;;;;;21.60;56.57;96873.28;10318961;28;20031;-26
2022/08/07 13:01:57;;;;;;;2.58;1.73;;;;;;;21.84;56.34;96867.13;10315076;28;20038;-26
2022/08/07 13:07:33;;;;;;;2.28;2.08;;;;;;;21.93;55.92;96862.78;10309523;28;20417;-26
2022/08/07 13:13:01;;;;;;;1.92;1.83;;;;;;;21.86;56.15;96860.28;10321530;28;20100;-26
2022/08/07 13:18:29;;;;;;;2.25;1.90;;;;;;;21.77;56.44;96861.25;10319734;28;20030;-26
2022/08/07 13:23:37;;;;;;;2.05;1.88;;;;;;;21.72;56.53;96852.78;10318599;28;20047;-26
2022/08/07 13:28:45;;;;;;;2.65;1.75;;;;;;;21.68;56.57;96851.16;10315985;28;20038;-26
2022/08/07 13:34:05;;;;;;;4.63;1.95;;;;;;;21.69;56.54;96851.97;10309776;28;20042;-26
2022/08/07 13:39:15;;;;;;;2.17;1.90;;;;;;;21.69;56.60;96842.66;10316579;28;20465;-26
2022/08/07 13:44:26;;;;;;;3.33;1.60;;;;;;;21.72;56.60;96841.78;10310676;28;20488;-26
2022/08/07 13:49:34;;;;;;;2.80;1.70;;;;;;;21.91;56.54;96830.50;10317176;28;20052;-26
2022/08/07 13:54:39;;;;;;;1.80;1.63;;;;;;;22.01;56.44;96830.38;10315982;28;20045;-26
2022/08/07 13:59:43;;;;;;;4.03;1.50;;;;;;;21.86;56.32;96820.38;10324755;28;20642;-26
2022/08/07 14:04:49;;;;;;;6.60;2.38;;;;;;;21.73;56.72;96817.97;10321026;28;20038;-26
2022/08/07 14:09:55;;;;;;;2.75;1.90;;;;;;;21.72;56.61;96819.66;10317904;28;20030;-25
2022/08/07 14:15:02;;;;;;;2.20;2.00;;;;;;;21.69;56.83;96817.16;10318678;28;20042;-25
2022/08/07 14:20:17;;;;;;;2.78;1.67;;;;;;;21.69;56.73;96811.22;10329668;28;20452;-26
2022/08/07 14:25:25;;;;;;;3.22;1.60;;;;;;;21.75;56.93;96809.47;10327656;28;20566;-26
2022/08/07 14:30:26;;;;;;;3.70;2.22;;;;;;;21.72;57.02;96796.72;10330170;28;20067;-26
2022/08/07 14:35:33;;;;;;;2.85;1.63;;;;;;;21.93;56.81;96791.41;10331274;28;20042;-26
2022/08/07 14:40:34;;;;;;;1.65;1.52;;;;;;;22.04;56.14;96792.09;10328987;28;20038;-26
2022/08/07 14:45:48;;;;;;;3.88;1.23;;;;;;;21.90;56.33;96783.75;10325554;28;20054;-26
2022/08/07 14:50:52;;;;;;;4.75;2.58;;;;;;;21.87;56.26;96794.00;10328856;28;20061;-26
2022/08/07 14:55:54;;;;;;;6.25;3.33;;;;;;;21.79;56.64;96789.84;10327581;28;20101;-25
2022/08/07 15:00:56;;;;;;;3.80;2.35;;;;;;;21.83;56.35;96787.28;10328632;28;20547;-25
2022/08/07 15:05:58;;;;;;;7.30;2.42;;;;;;;21.81;56.61;96793.25;10318993;28;20130;-26
2022/08/07 15:11:08;;;;;;;6.25;1.92;;;;;;;21.78;56.50;96785.63;10330214;28;20039;-26
2022/08/07 15:16:10;;;;;;;4.70;2.70;;;;;;;21.75;56.66;96775.47;10318013;28;20034;-27
2022/08/07 15:21:26;;;;;;;2.13;1.92;;;;;;;21.88;56.33;96767.66;10321471;28;20133;-25
2022/08/07 15:26:39;;;;;;;3.33;1.90;;;;;;;22.06;55.76;96772.50;10328713;28;20424;-26
2022/08/07 15:31:42;;;;;;;2.95;1.50;;;;;;;22.01;56.08;96779.41;10324265;28;20044;-26
2022/08/07 15:36:45;;;;;;;4.55;2.30;;;;;;;21.89;56.71;96788.91;10327062;28;20076;-27
2022/08/07 15:42:00;;;;;;;6.45;2.35;;;;;;;21.90;56.45;96776.13;10324180;28;20042;-26
2022/08/07 15:47:05;;;;;;;6.18;2.10;;;;;;;21.76;56.57;96757.63;10325695;28;20057;-25
2022/08/07 15:52:09;;;;;;;4.00;1.90;;;;;;;21.78;56.87;96771.19;10322874;28;20062;-27
2022/08/07 15:57:13;;;;;;;1.50;1.40;;;;;;;21.74;56.90;96768.69;10328554;28;20042;-26
2022/08/07 16:02:27;;;;;;;2.78;1.67;;;;;;;21.67;57.01;96773.03;10320030;28;20054;-26
2022/08/07 16:07:30;;;;;;;1.60;1.50;;;;;;;21.90;56.51;96765.91;10323904;28;20065;-26
2022/08/07 16:12:58;;;;;;;2.65;1.67;;;;;;;22.07;56.02;96764.00;10322268;28;20161;-26
2022/08/07 16:18:40;;;;;;;3.05;1.60;;;;;;;21.98;56.07;96759.00;10312137;28;20034;-26
2022/08/07 16:24:07;;;;;;;2.85;2.20;;;;;;;21.90;56.43;96750.63;10303356;28;20043;-26
2022/08/07 16:29:22;;;;;;;3.25;2.03;;;;;;;21.88;56.94;96760.00;10327155;28;20142;-25
2022/08/07 16:34:40;;;;;;;5.37;2.00;;;;;;;21.92;56.88;96758.25;10314311;28;20041;-26
2022/08/07 16:39:59;;;;;;;4.07;2.10;;;;;;;21.90;56.91;96765.09;10322450;28;20480;-26
2022/08/07 16:45:34;;;;;;;3.45;1.90;;;;;;;21.89;56.78;96776.97;10313202;28;20125;-26
2022/08/07 16:50:40;;;;;;;6.53;1.90;;;;;;;21.88;57.20;96790.59;10312527;28;20133;-26
2022/08/07 16:56:01;;;;;;;2.10;1.40;;;;;;;22.09;56.81;96784.38;10319947;28;20038;-26
2022/08/07 17:01:01;;;;;;;3.28;1.52;;;;;;;22.12;56.44;96782.63;10324054;28;20579;-26
2022/08/07 17:06:04;;;;;;;1.90;1.65;;;;;;;22.02;56.68;96786.19;10323279;28;20066;-26
2022/08/07 17:11:12;;;;;;;3.35;1.58;;;;;;;21.91;57.39;96802.47;10323909;28;20473;-26
2022/08/07 17:16:21;;;;;;;4.38;2.15;;;;;;;21.91;57.41;96793.09;10325528;28;20471;-26
2022/08/07 17:21:25;;;;;;;7.13;3.03;;;;;;;21.92;57.47;96782.06;10320681;28;20099;-26
2022/08/07 17:26:50;;;;;;;8.32;2.33;;;;;;;21.98;57.60;96778.59;10325099;28;20046;-26
2022/08/07 17:32:04;;;;;;;2.65;1.90;;;;;;;21.94;57.31;96782.03;10320381;28;20381;-26
2022/08/07 17:37:18;;;;;;;7.32;2.03;;;;;;;21.88;57.57;96777.84;10323922;28;20505;-26
2022/08/07 17:42:50;;;;;;;2.83;1.90;;;;;;;22.08;57.40;96778.44;10324016;28;20495;-27
2022/08/07 17:48:24;;;;;;;3.35;1.70;;;;;;;22.20;56.41;96785.94;10318024;28;20544;-27
2022/08/07 17:53:39;;;;;;;3.38;1.95;;;;;;;22.06;57.12;96792.91;10308013;28;20058;-25
2022/08/07 17:58:56;;;;;;;2.70;1.98;;;;;;;21.96;56.94;96801.53;10321989;28;20382;-25
2022/08/07 18:04:10;;;;;;;5.88;2.58;;;;;;;22.00;57.07;96810.00;10323977;28;20038;-26
2022/08/07 18:09:20;;;;;;;4.28;2.17;;;;;;;21.98;56.91;96815.09;10321829;28;20058;-25
2022/08/07 18:14:33;;;;;;;2.40;1.60;;;;;;;21.99;56.85;96811.69;10320034;28;20034;-25
2022/08/07 18:19:44;;;;;;;5.63;2.28;;;;;;;21.90;57.00;96811.81;10320189;28;20070;-25
2022/08/07 18:24:47;;;;;;;2.75;1.67;;;;;;;21.89;57.05;96825.41;10321473;28;20042;-25
2022/08/07 18:30:08;;;;;;;2.92;1.50;;;;;;;22.10;57.38;96835.38;10318280;28;20092;-25
2022/08/07 18:35:27;;;;;;;3.28;1.90;;;;;;;22.22;57.00;96845.41;10317393;28;20125;-25
2022/08/07 18:40:55;;;;;;;1.52;1.40;;;;;;;22.09;56.95;96859.19;10320813;28;20081;-26
2022/08/07 18:46:01;;;;;;;5.30;1.80;;;;;;;21.99;57.21;96865.22;10311155;28;20061;-25
2022/08/07 18:51:18;;;;;;;2.88;2.00;;;;;;;21.93;57.11;96867.03;10310438;28;20117;-26
2022/08/07 18:56:24;;;;;;;;;;;;;;;21.83;57.50;96881.59;10315668;28;20115;-25
2022/08/07 19:01:37;;;;;;;7.57;1.97;;;;;;;21.87;57.35;96888.31;10311275;28;20415;-25
2022/08/07 19:06:51;;;;;;;4.20;2.13;;;;;;;21.87;57.12;96888.31;10317557;28;20046;-25
2022/08/07 19:12:12;;;;;;;4.53;1.50;;;;;;;22.01;57.04;96896.69;10317084;28;20489;-25
2022/08/07 19:17:18;;;;;;;2.63;1.90;;;;;;;22.20;56.96;96907.50;10322979;28;20041;-26
2022/08/07 19:22:39;;;;;;;3.05;1.40;;;;;;;22.09;56.54;96916.97;10322389;28;20041;-26
2022/08/07 19:27:43;;;;;;;1.40;1.27;;;;;;;22.01;56.95;96924.72;10314986;28;20053;-26
2022/08/07 19:32:47;;;;;;;4.10;1.60;;;;;;;21.97;56.93;96940.91;10323275;28;20539;-26
2022/08/07 19:37:53;;;;;;;1.77;1.50;;;;;;;21.97;56.96;96932.44;10319170;28;20031;-26
2022/08/07 19:42:55;;;;;;;3.40;1.98;;;;;;;21.91;56.86;96940.94;10324685;28;20156;-26
2022/08/07 19:47:57;;;;;;;2.55;1.42;;;;;;;21.90;56.92;96944.38;10324283;28;20057;-25
2022/08/07 19:52:58;;;;;;;1.60;1.33;;;;;;;21.92;56.98;96946.91;10323434;28;20026;-26
2022/08/07 19:57:59;;;;;;;1.60;1.20;;;;;;;22.14;55.40;96946.66;10324455;28;20404;-26
2022/08/07 20:03:04;;;;;;;1.67;1.42;;;;;;;22.20;55.87;96936.41;10315662;28;20134;-25
2022/08/07 20:08:12;;;;;;;1.50;1.33;;;;;;;22.02;56.50;96939.16;10313150;28;20042;-26
2022/08/07 20:13:17;;;;;;;3.03;1.63;;;;;;;21.98;56.67;96942.59;10320992;28;20038;-25
2022/08/07 20:18:18;;;;;;;2.72;1.63;;;;;;;21.93;56.82;96944.34;10316234;28;20117;-25
2022/08/07 20:23:19;;;;;;;2.35;1.30;;;;;;;21.90;56.74;96949.47;10316581;28;20030;-26
2022/08/07 20:28:25;;;;;;;2.50;1.70;;;;;;;21.89;56.91;96942.69;10286293;28;20685;-26
2022/08/07 20:33:30;;;;;;;3.78;1.58;;;;;;;21.89;56.98;96947.78;10298285;28;20026;-25
2022/08/07 20:38:31;;;;;;;2.78;2.10;;;;;;;21.89;57.14;96957.97;10317152;28;20037;-25
2022/08/07 20:43:33;;;;;;;1.20;1.08;;;;;;;22.04;56.48;96950.19;10320273;28;20037;-25
2022/08/07 20:48:36;;;;;;;2.85;1.33;;;;;;;22.21;56.34;96950.00;10319108;28;20034;-26
2022/08/07 20:53:38;;;;;;;1.67;1.23;;;;;;;22.09;56.44;96945.88;10318438;28;20162;-26
2022/08/07 20:58:42;;;;;;;2.67;1.35;;;;;;;22.02;56.80;96963.81;10324181;28;20572;-26
2022/08/07 21:03:46;;;;;;;2.33;1.50;;;;;;;21.96;56.76;96959.59;10312403;28;20042;-26
2022/08/07 21:09:08;;;;;;;1.55;1.40;;;;;;;21.93;56.65;96961.34;10325409;28;20068;-25
2022/08/07 21:14:21;;;;;;;6.97;1.60;;;;;;;21.89;56.86;96957.97;10321690;28;20108;-26
2022/08/07 21:19:27;;;;;;;3.03;2.08;;;;;;;21.91;57.02;96957.97;10326139;28;20476;-26
2022/08/07 21:24:54;;;;;;;2.55;1.80;;;;;;;21.90;56.88;96962.22;10320468;28;20092;-26
2022/08/07 21:30:02;;;;;;;;;;;;;;;21.96;56.88;96964.72;10327839;28;20045;-26
2022/08/07 21:35:14;;;;;;;1.88;1.65;;;;;;;22.16;56.03;96956.88;10320936;28;20357;-26
2022/08/07 21:40:44;;;;;;;1.60;1.50;;;;;;;22.17;55.65;96956.84;10324586;28;20037;-26
2022/08/07 21:46:18;;;;;;;1.35;1.25;;;;;;;22.11;56.13;96958.59;10321036;28;20038;-26
2022/08/07 21:51:27;;;;;;;2.30;1.75;;;;;;;22.06;56.28;96968.84;10321839;28;20034;-26
2022/08/07 21:57:07;;;;;;;2.10;1.67;;;;;;;22.05;56.39;96959.53;10325860;28;20049;-26
2022/08/07 22:02:13;;;;;;;1.70;1.55;;;;;;;22.02;56.39;96949.38;10325301;28;20228;-26
2022/08/07 22:07:17;;;;;;;;;;;;;;;22.01;55.93;96962.97;10318371;28;20512;-26
2022/08/07 22:12:31;;;;;;;2.45;1.60;;;;;;;22.00;56.00;96958.75;10326249;28;20292;-26
2022/08/07 22:17:42;;;;;;;2.00;1.80;;;;;;;22.00;56.28;96958.75;10323010;28;20069;-26
2022/08/07 22:22:46;;;;;;;3.10;1.75;;;;;;;22.12;55.24;96963.69;10316138;28;20081;-26
2022/08/07 22:27:54;;;;;;;2.22;1.50;;;;;;;22.13;55.09;96960.28;10325700;28;20046;-26
2022/08/07 22:33:09;;;;;;;1.75;1.55;;;;;;;22.14;55.18;96969.63;10322374;28;20117;-26
2022/08/07 22:38:37;;;;;;;4.03;2.15;;;;;;;22.10;55.31;96962.88;10322243;28;20250;-26
2022/08/07 22:43:54;;;;;;;2.60;1.67;;;;;;;22.01;55.49;96955.31;10327891;28;20062;-27
2022/08/07 22:49:14;;;;;;;2.78;1.60;;;;;;;22.00;55.47;96960.44;10332192;28;20046;-26
2022/08/07 22:54:50;;;;;;;4.43;1.85;;;;;;;21.96;55.65;96969.81;10327863;28;20477;-25
2022/08/07 23:00:02;;;;;;;2.92;1.45;;;;;;;21.94;55.54;96966.44;10316941;28;20140;-26
2022/08/07 23:05:36;;;;;;;2.88;1.70;;;;;;;21.86;55.66;96968.22;10329704;28;20034;-25
2022/08/07 23:10:51;;;;;;;2.55;1.88;;;;;;;21.88;55.12;96965.66;10331573;28;20030;-26
2022/08/07 23:16:12;;;;;;;2.15;1.65;;;;;;;21.94;54.62;96970.69;10329429;28;20030;-25
2022/08/07 23:21:26;;;;;;;1.52;1.42;;;;;;;21.90;54.97;96964.75;10327096;28;20517;-26
2022/08/07 23:26:48;;;;;;;1.95;1.50;;;;;;;21.87;55.16;96962.25;10331762;28;20535;-25
2022/08/07 23:32:16;;;;;;;1.65;1.55;;;;;;;21.78;54.95;96964.03;10327511;28;20050;-25
2022/08/07 23:37:42;;;;;;;1.70;1.35;;;;;;;21.80;55.32;96973.34;10328473;28;20037;-26
2022/08/07 23:43:16;;;;;;;2.60;1.50;;;;;;;21.83;54.76;96975.91;10325770;28;20104;-26
2022/08/07 23:48:32;;;;;;;1.55;1.45;;;;;;;21.80;54.78;96978.47;10329407;28;20061;-26
2022/08/07 23:53:41;;;;;;;3.17;1.42;;;;;;;21.81;55.32;96982.69;10327015;28;20194;-26
2022/08/07 23:59:10;;;;;;;1.90;1.67;;;;;;;21.81;54.65;96980.16;10329599;28;20042;-26
